sensor_id;sensor_type;location;lat;lon;timestamp;P1;durP1;ratioP1;P2;durP2;ratioP2
58466;SDS011;44255;49.244;7.726;2023-03-20T04:31:04;35.22;;;14.80;;
58466;SDS011;44255;49.244;7.726;2023-03-20T04:33:29;31.95;;;13.95;;
58466;SDS011;44255;49.244;7.726;2023-03-20T04:35:55;34.67;;;14.83;;
58466;SDS011;44255;49.244;7.726;2023-03-20T04:38:20;33.90;;;14.07;;
58466;SDS011;44255;49.244;7.726;2023-03-20T04:40:47;39.38;;;15.10;;
58466;SDS011;44255;49.244;7.726;2023-03-20T04:43:13;37.75;;;14.93;;
58466;SDS011;44255;49.244;7.726;2023-03-20T04:45:45;28.73;;;12.82;;
58466;SDS011;44255;49.244;7.726;2023-03-20T04:48:10;35.28;;;14.35;;
58466;SDS011;44255;49.244;7.726;2023-03-20T04:50:36;30.83;;;13.20;;
58466;SDS011;44255;49.244;7.726;2023-03-20T04:53:01;34.33;;;13.32;;
58466;SDS011;44255;49.244;7.726;2023-03-20T04:55:27;32.87;;;14.03;;
58466;SDS011;44255;49.244;7.726;2023-03-20T04:57:52;31.03;;;12.90;;
58466;SDS011;44255;49.244;7.726;2023-03-20T05:00:17;32.17;;;13.80;;
58466;SDS011;44255;49.244;7.726;2023-03-20T05:02:43;33.50;;;13.82;;
58466;SDS011;44255;49.244;7.726;2023-03-20T05:05:08;38.10;;;14.93;;
58466;SDS011;44255;49.244;7.726;2023-03-20T05:07:34;36.85;;;13.88;;
58466;SDS011;44255;49.244;7.726;2023-03-20T05:09:59;33.17;;;14.60;;
58466;SDS011;44255;49.244;7.726;2023-03-20T05:12:25;32.75;;;14.85;;
58466;SDS011;44255;49.244;7.726;2023-03-20T05:14:51;35.45;;;14.52;;
58466;SDS011;44255;49.244;7.726;2023-03-20T05:17:18;38.75;;;15.95;;
58466;SDS011;44255;49.244;7.726;2023-03-20T05:19:44;39.20;;;14.57;;
58466;SDS011;44255;49.244;7.726;2023-03-20T05:22:09;42.03;;;14.82;;
58466;SDS011;44255;49.244;7.726;2023-03-20T05:24:35;38.20;;;15.80;;
58466;SDS011;44255;49.244;7.726;2023-03-20T05:27:00;36.90;;;15.23;;
58466;SDS011;44255;49.244;7.726;2023-03-20T05:29:25;40.47;;;15.98;;
58466;SDS011;44255;49.244;7.726;2023-03-20T05:31:51;45.30;;;15.80;;
58466;SDS011;44255;49.244;7.726;2023-03-20T05:34:16;46.97;;;16.80;;
58466;SDS011;44255;49.244;7.726;2023-03-20T05:36:41;47.07;;;15.67;;
58466;SDS011;44255;49.244;7.726;2023-03-20T05:39:06;37.47;;;15.20;;
58466;SDS011;44255;49.244;7.726;2023-03-20T05:41:32;41.83;;;16.70;;
58466;SDS011;44255;49.244;7.726;2023-03-20T05:43:57;44.25;;;18.45;;
58466;SDS011;44255;49.244;7.726;2023-03-20T05:46:22;47.60;;;19.60;;
58466;SDS011;44255;49.244;7.726;2023-03-20T05:48:48;40.55;;;17.13;;
58466;SDS011;44255;49.244;7.726;2023-03-20T05:51:13;34.27;;;15.07;;
58466;SDS011;44255;49.244;7.726;2023-03-20T05:53:39;38.47;;;15.73;;
58466;SDS011;44255;49.244;7.726;2023-03-20T05:56:04;35.72;;;14.45;;
58466;SDS011;44255;49.244;7.726;2023-03-20T05:58:30;35.38;;;15.05;;
58466;SDS011;44255;49.244;7.726;2023-03-20T06:00:56;37.30;;;15.53;;
58466;SDS011;44255;49.244;7.726;2023-03-20T06:05:47;39.65;;;14.52;;
58466;SDS011;44255;49.244;7.726;2023-03-20T06:08:12;39.90;;;14.87;;
58466;SDS011;44255;49.244;7.726;2023-03-20T06:10:37;38.80;;;15.33;;
58466;SDS011;44255;49.244;7.726;2023-03-20T06:13:02;37.37;;;14.63;;
58466;SDS011;44255;49.244;7.726;2023-03-20T06:15:28;40.63;;;16.57;;
58466;SDS011;44255;49.244;7.726;2023-03-20T06:17:54;33.50;;;14.65;;
58466;SDS011;44255;49.244;7.726;2023-03-20T06:20:20;40.75;;;16.00;;
58466;SDS011;44255;49.244;7.726;2023-03-20T06:22:45;36.90;;;14.98;;
58466;SDS011;44255;49.244;7.726;2023-03-20T06:25:11;38.93;;;14.93;;
58466;SDS011;44255;49.244;7.726;2023-03-20T06:27:36;40.58;;;15.50;;
58466;SDS011;44255;49.244;7.726;2023-03-20T06:30:02;43.10;;;15.35;;
58466;SDS011;44255;49.244;7.726;2023-03-20T06:34:53;37.45;;;15.07;;
58466;SDS011;44255;49.244;7.726;2023-03-20T06:37:19;42.92;;;15.75;;
58466;SDS011;44255;49.244;7.726;2023-03-20T06:39:44;44.35;;;15.23;;
58466;SDS011;44255;49.244;7.726;2023-03-20T06:42:10;41.33;;;15.73;;
58466;SDS011;44255;49.244;7.726;2023-03-20T06:44:36;47.63;;;16.90;;
58466;SDS011;44255;49.244;7.726;2023-03-20T06:47:02;41.20;;;15.15;;
58466;SDS011;44255;49.244;7.726;2023-03-20T06:49:27;57.60;;;21.73;;
58466;SDS011;44255;49.244;7.726;2023-03-20T06:51:52;42.60;;;16.37;;
58466;SDS011;44255;49.244;7.726;2023-03-20T06:54:18;41.53;;;15.17;;
58466;SDS011;44255;49.244;7.726;2023-03-20T06:56:43;34.88;;;13.52;;
58466;SDS011;44255;49.244;7.726;2023-03-20T06:59:08;29.20;;;11.70;;
58466;SDS011;44255;49.244;7.726;2023-03-20T07:01:33;28.53;;;11.40;;
58466;SDS011;44255;49.244;7.726;2023-03-20T07:03:59;29.15;;;12.10;;
58466;SDS011;44255;49.244;7.726;2023-03-20T07:06:25;30.85;;;11.77;;
58466;SDS011;44255;49.244;7.726;2023-03-20T07:08:50;31.10;;;11.75;;
58466;SDS011;44255;49.244;7.726;2023-03-20T07:11:16;28.08;;;11.75;;
58466;SDS011;44255;49.244;7.726;2023-03-20T07:13:42;27.15;;;11.05;;
58466;SDS011;44255;49.244;7.726;2023-03-20T07:16:08;25.70;;;10.43;;
58466;SDS011;44255;49.244;7.726;2023-03-20T07:18:33;28.30;;;11.15;;
58466;SDS011;44255;49.244;7.726;2023-03-20T07:20:59;27.80;;;10.30;;
58466;SDS011;44255;49.244;7.726;2023-03-20T07:23:27;29.92;;;11.95;;
58466;SDS011;44255;49.244;7.726;2023-03-20T07:25:53;37.25;;;12.63;;
58466;SDS011;44255;49.244;7.726;2023-03-20T07:28:18;34.47;;;12.53;;
58466;SDS011;44255;49.244;7.726;2023-03-20T07:30:43;34.17;;;12.47;;
58466;SDS011;44255;49.244;7.726;2023-03-20T07:33:08;37.20;;;13.93;;
58466;SDS011;44255;49.244;7.726;2023-03-20T07:35:34;36.40;;;14.27;;
58466;SDS011;44255;49.244;7.726;2023-03-20T07:37:59;35.25;;;14.75;;
58466;SDS011;44255;49.244;7.726;2023-03-20T07:40:25;36.85;;;14.63;;
58466;SDS011;44255;49.244;7.726;2023-03-20T07:42:50;33.65;;;13.48;;
58466;SDS011;44255;49.244;7.726;2023-03-20T07:45:16;32.75;;;13.55;;
58466;SDS011;44255;49.244;7.726;2023-03-20T07:47:42;39.00;;;14.95;;
58466;SDS011;44255;49.244;7.726;2023-03-20T07:50:08;42.20;;;14.90;;
58466;SDS011;44255;49.244;7.726;2023-03-20T07:52:34;40.25;;;15.20;;
58466;SDS011;44255;49.244;7.726;2023-03-20T07:54:59;37.20;;;13.77;;
58466;SDS011;44255;49.244;7.726;2023-03-20T07:57:24;37.40;;;14.47;;
58466;SDS011;44255;49.244;7.726;2023-03-20T07:59:49;37.57;;;14.50;;
58466;SDS011;44255;49.244;7.726;2023-03-20T08:02:15;31.93;;;13.43;;
58466;SDS011;44255;49.244;7.726;2023-03-20T08:04:41;36.72;;;14.38;;
58466;SDS011;44255;49.244;7.726;2023-03-20T08:07:07;41.38;;;16.63;;
58466;SDS011;44255;49.244;7.726;2023-03-20T08:09:33;35.33;;;15.43;;
58466;SDS011;44255;49.244;7.726;2023-03-20T08:11:58;32.60;;;13.85;;
58466;SDS011;44255;49.244;7.726;2023-03-20T08:14:23;31.33;;;13.27;;
58466;SDS011;44255;49.244;7.726;2023-03-20T08:16:49;31.97;;;13.27;;
58466;SDS011;44255;49.244;7.726;2023-03-20T08:19:14;34.00;;;13.10;;
58466;SDS011;44255;49.244;7.726;2023-03-20T08:21:39;31.33;;;12.98;;
58466;SDS011;44255;49.244;7.726;2023-03-20T08:24:05;28.43;;;11.33;;
58466;SDS011;44255;49.244;7.726;2023-03-20T08:26:30;25.38;;;10.93;;
58466;SDS011;44255;49.244;7.726;2023-03-20T08:28:56;28.40;;;11.00;;
58466;SDS011;44255;49.244;7.726;2023-03-20T08:31:21;29.73;;;11.30;;
58466;SDS011;44255;49.244;7.726;2023-03-20T08:33:47;26.75;;;11.13;;
58466;SDS011;44255;49.244;7.726;2023-03-20T08:36:13;22.38;;;9.98;;
58466;SDS011;44255;49.244;7.726;2023-03-20T08:38:39;21.27;;;9.82;;
58466;SDS011;44255;49.244;7.726;2023-03-20T08:41:05;18.17;;;8.52;;
58466;SDS011;44255;49.244;7.726;2023-03-20T08:43:31;18.20;;;8.85;;
58466;SDS011;44255;49.244;7.726;2023-03-20T08:45:56;21.40;;;9.27;;
58466;SDS011;44255;49.244;7.726;2023-03-20T08:48:21;26.63;;;10.97;;
58466;SDS011;44255;49.244;7.726;2023-03-20T08:50:47;22.53;;;10.10;;
58466;SDS011;44255;49.244;7.726;2023-03-20T08:53:12;23.40;;;10.00;;
58466;SDS011;44255;49.244;7.726;2023-03-20T08:55:37;21.70;;;8.73;;
58466;SDS011;44255;49.244;7.726;2023-03-20T09:36:23;15.85;;;9.15;;
58466;SDS011;44255;49.244;7.726;2023-03-20T09:38:48;16.57;;;9.93;;
58466;SDS011;44255;49.244;7.726;2023-03-20T09:41:16;14.67;;;7.00;;
58466;SDS011;44255;49.244;7.726;2023-03-20T09:43:55;15.27;;;7.93;;
58466;SDS011;44255;49.244;7.726;2023-03-20T10:06:13;14.00;;;6.38;;
58466;SDS011;44255;49.244;7.726;2023-03-20T10:08:41;12.35;;;6.70;;
58466;SDS011;44255;49.244;7.726;2023-03-20T10:19:22;7.57;;;4.47;;
58466;SDS011;44255;49.244;7.726;2023-03-20T10:22:01;9.23;;;5.03;;
58466;SDS011;44255;49.244;7.726;2023-03-20T10:24:38;11.13;;;4.93;;
58466;SDS011;44255;49.244;7.726;2023-03-20T10:27:16;10.05;;;5.05;;
58466;SDS011;44255;49.244;7.726;2023-03-20T10:32:42;13.25;;;6.15;;
58466;SDS011;44255;49.244;7.726;2023-03-20T10:35:27;6.72;;;3.67;;
58466;SDS011;44255;49.244;7.726;2023-03-20T10:38:06;6.65;;;3.63;;
58466;SDS011;44255;49.244;7.726;2023-03-20T10:40:39;8.65;;;3.67;;
58466;SDS011;44255;49.244;7.726;2023-03-20T10:43:22;6.95;;;3.33;;
58466;SDS011;44255;49.244;7.726;2023-03-20T10:45:53;4.82;;;2.72;;
58466;SDS011;44255;49.244;7.726;2023-03-20T10:48:39;6.25;;;3.65;;
58466;SDS011;44255;49.244;7.726;2023-03-20T10:51:11;8.55;;;4.13;;
58466;SDS011;44255;49.244;7.726;2023-03-20T10:53:47;7.05;;;4.68;;
58466;SDS011;44255;49.244;7.726;2023-03-20T10:56:39;8.90;;;4.65;;
58466;SDS011;44255;49.244;7.726;2023-03-20T10:59:23;10.80;;;5.15;;
58466;SDS011;44255;49.244;7.726;2023-03-20T11:01:52;9.70;;;5.25;;
58466;SDS011;44255;49.244;7.726;2023-03-20T11:04:18;8.30;;;5.13;;
58466;SDS011;44255;49.244;7.726;2023-03-20T11:06:55;9.32;;;4.30;;
58466;SDS011;44255;49.244;7.726;2023-03-20T11:09:39;13.52;;;7.60;;
58466;SDS011;44255;49.244;7.726;2023-03-20T11:12:04;8.73;;;4.43;;
58466;SDS011;44255;49.244;7.726;2023-03-20T11:14:35;8.73;;;4.93;;
58466;SDS011;44255;49.244;7.726;2023-03-20T11:17:03;8.40;;;4.30;;
58466;SDS011;44255;49.244;7.726;2023-03-20T11:19:33;6.75;;;3.13;;
58466;SDS011;44255;49.244;7.726;2023-03-20T11:22:05;3.97;;;2.72;;
58466;SDS011;44255;49.244;7.726;2023-03-20T11:24:40;4.05;;;2.00;;
58466;SDS011;44255;49.244;7.726;2023-03-20T11:27:14;6.82;;;2.30;;
58466;SDS011;44255;49.244;7.726;2023-03-20T11:29:42;3.83;;;2.35;;
58466;SDS011;44255;49.244;7.726;2023-03-20T11:34:40;4.25;;;1.90;;
58466;SDS011;44255;49.244;7.726;2023-03-20T11:37:19;4.28;;;2.42;;
58466;SDS011;44255;49.244;7.726;2023-03-20T11:42:39;4.82;;;2.10;;
58466;SDS011;44255;49.244;7.726;2023-03-20T11:45:16;6.10;;;2.58;;
58466;SDS011;44255;49.244;7.726;2023-03-20T11:47:42;3.97;;;1.65;;
58466;SDS011;44255;49.244;7.726;2023-03-20T11:52:53;5.93;;;2.75;;
58466;SDS011;44255;49.244;7.726;2023-03-20T11:55:26;4.25;;;2.50;;
58466;SDS011;44255;49.244;7.726;2023-03-20T11:57:55;3.60;;;2.30;;
58466;SDS011;44255;49.244;7.726;2023-03-20T12:00:23;6.55;;;3.38;;
58466;SDS011;44255;49.244;7.726;2023-03-20T12:02:53;8.38;;;3.92;;
58466;SDS011;44255;49.244;7.726;2023-03-20T12:05:29;7.10;;;3.87;;
58466;SDS011;44255;49.244;7.726;2023-03-20T12:08:21;4.53;;;2.90;;
58466;SDS011;44255;49.244;7.726;2023-03-20T12:10:58;5.72;;;3.70;;
58466;SDS011;44255;49.244;7.726;2023-03-20T12:13:33;6.30;;;3.08;;
58466;SDS011;44255;49.244;7.726;2023-03-20T12:16:05;6.78;;;3.67;;
58466;SDS011;44255;49.244;7.726;2023-03-20T12:18:40;8.02;;;3.50;;
58466;SDS011;44255;49.244;7.726;2023-03-20T12:21:11;6.60;;;3.88;;
58466;SDS011;44255;49.244;7.726;2023-03-20T12:23:50;6.05;;;3.42;;
58466;SDS011;44255;49.244;7.726;2023-03-20T12:34:55;5.15;;;3.30;;
58466;SDS011;44255;49.244;7.726;2023-03-20T12:37:26;6.30;;;3.42;;
58466;SDS011;44255;49.244;7.726;2023-03-20T12:40:01;5.45;;;3.58;;
58466;SDS011;44255;49.244;7.726;2023-03-20T12:45:15;5.55;;;3.38;;
58466;SDS011;44255;49.244;7.726;2023-03-20T12:50:41;8.27;;;3.72;;
58466;SDS011;44255;49.244;7.726;2023-03-20T12:59:05;6.68;;;3.92;;
58466;SDS011;44255;49.244;7.726;2023-03-20T13:01:47;5.70;;;3.42;;
58466;SDS011;44255;49.244;7.726;2023-03-20T13:07:17;10.90;;;5.88;;
58466;SDS011;44255;49.244;7.726;2023-03-20T13:09:59;7.82;;;4.82;;
58466;SDS011;44255;49.244;7.726;2023-03-20T13:12:48;7.30;;;3.80;;
58466;SDS011;44255;49.244;7.726;2023-03-20T13:21:12;5.57;;;3.00;;
58466;SDS011;44255;49.244;7.726;2023-03-20T13:23:55;4.82;;;2.90;;
58466;SDS011;44255;49.244;7.726;2023-03-20T13:29:51;15.05;;;8.05;;
58466;SDS011;44255;49.244;7.726;2023-03-20T13:32:37;7.50;;;4.25;;
58466;SDS011;44255;49.244;7.726;2023-03-20T13:37:43;6.35;;;3.17;;
58466;SDS011;44255;49.244;7.726;2023-03-20T13:40:20;11.80;;;5.53;;
58466;SDS011;44255;49.244;7.726;2023-03-20T13:45:25;8.90;;;4.97;;
58466;SDS011;44255;49.244;7.726;2023-03-20T13:47:57;7.60;;;3.75;;
58466;SDS011;44255;49.244;7.726;2023-03-20T14:04:14;5.32;;;2.65;;
58466;SDS011;44255;49.244;7.726;2023-03-20T14:06:44;5.97;;;2.42;;
58466;SDS011;44255;49.244;7.726;2023-03-20T14:09:23;4.28;;;2.17;;
58466;SDS011;44255;49.244;7.726;2023-03-20T14:11:52;6.78;;;2.72;;
58466;SDS011;44255;49.244;7.726;2023-03-20T14:14:24;4.47;;;2.03;;
58466;SDS011;44255;49.244;7.726;2023-03-20T14:19:41;3.58;;;1.75;;
58466;SDS011;44255;49.244;7.726;2023-03-20T14:22:13;3.20;;;1.92;;
58466;SDS011;44255;49.244;7.726;2023-03-20T14:24:40;3.60;;;1.80;;
58466;SDS011;44255;49.244;7.726;2023-03-20T14:27:16;3.17;;;1.85;;
58466;SDS011;44255;49.244;7.726;2023-03-20T14:29:44;3.90;;;2.10;;
58466;SDS011;44255;49.244;7.726;2023-03-20T14:34:47;5.03;;;2.08;;
58466;SDS011;44255;49.244;7.726;2023-03-20T15:06:23;3.90;;;2.10;;
58466;SDS011;44255;49.244;7.726;2023-03-20T15:08:51;3.65;;;1.90;;
58466;SDS011;44255;49.244;7.726;2023-03-20T15:11:20;5.97;;;2.53;;
58466;SDS011;44255;49.244;7.726;2023-03-20T15:13:47;2.35;;;1.40;;
58466;SDS011;44255;49.244;7.726;2023-03-20T15:16:14;2.75;;;1.60;;
58466;SDS011;44255;49.244;7.726;2023-03-20T15:21:11;3.60;;;1.75;;
58466;SDS011;44255;49.244;7.726;2023-03-20T15:23:39;4.15;;;1.90;;
58466;SDS011;44255;49.244;7.726;2023-03-20T15:26:05;3.72;;;1.83;;
58466;SDS011;44255;49.244;7.726;2023-03-20T15:28:32;2.33;;;1.70;;
58466;SDS011;44255;49.244;7.726;2023-03-20T15:31:01;3.35;;;1.60;;
58466;SDS011;44255;49.244;7.726;2023-03-20T15:33:28;4.43;;;2.20;;
58466;SDS011;44255;49.244;7.726;2023-03-20T15:35:56;8.20;;;2.10;;
58466;SDS011;44255;49.244;7.726;2023-03-20T15:38:25;4.28;;;1.92;;
58466;SDS011;44255;49.244;7.726;2023-03-20T15:40:56;4.95;;;2.40;;
58466;SDS011;44255;49.244;7.726;2023-03-20T15:43:22;2.60;;;1.60;;
58466;SDS011;44255;49.244;7.726;2023-03-20T15:45:49;4.72;;;2.60;;
58466;SDS011;44255;49.244;7.726;2023-03-20T15:48:19;4.90;;;2.80;;
58466;SDS011;44255;49.244;7.726;2023-03-20T15:50:53;15.02;;;7.40;;
58466;SDS011;44255;49.244;7.726;2023-03-20T15:53:33;8.68;;;3.83;;
58466;SDS011;44255;49.244;7.726;2023-03-20T15:56:05;3.85;;;2.47;;
58466;SDS011;44255;49.244;7.726;2023-03-20T15:58:33;2.95;;;1.70;;
58466;SDS011;44255;49.244;7.726;2023-03-20T16:01:00;4.28;;;1.80;;
58466;SDS011;44255;49.244;7.726;2023-03-20T16:03:27;3.90;;;2.10;;
58466;SDS011;44255;49.244;7.726;2023-03-20T16:08:23;7.57;;;2.03;;
58466;SDS011;44255;49.244;7.726;2023-03-20T16:10:55;5.65;;;2.20;;
58466;SDS011;44255;49.244;7.726;2023-03-20T16:13:23;5.43;;;1.92;;
58466;SDS011;44255;49.244;7.726;2023-03-20T16:15:49;16.65;;;7.00;;
58466;SDS011;44255;49.244;7.726;2023-03-20T16:18:17;14.13;;;5.88;;
58466;SDS011;44255;49.244;7.726;2023-03-20T16:20:46;4.32;;;2.33;;
58466;SDS011;44255;49.244;7.726;2023-03-20T16:23:31;5.78;;;3.20;;
58466;SDS011;44255;49.244;7.726;2023-03-20T16:25:59;4.88;;;2.60;;
58466;SDS011;44255;49.244;7.726;2023-03-20T16:28:27;5.15;;;3.08;;
58466;SDS011;44255;49.244;7.726;2023-03-20T16:30:54;6.68;;;3.25;;
58466;SDS011;44255;49.244;7.726;2023-03-20T16:33:30;4.47;;;2.30;;
58466;SDS011;44255;49.244;7.726;2023-03-20T16:35:55;3.97;;;2.00;;
58466;SDS011;44255;49.244;7.726;2023-03-20T16:40:52;5.35;;;2.85;;
58466;SDS011;44255;49.244;7.726;2023-03-20T16:43:21;4.38;;;2.60;;
58466;SDS011;44255;49.244;7.726;2023-03-20T16:45:52;9.18;;;3.15;;
58466;SDS011;44255;49.244;7.726;2023-03-20T16:48:22;5.68;;;2.45;;
58466;SDS011;44255;49.244;7.726;2023-03-20T16:50:53;4.70;;;2.67;;
58466;SDS011;44255;49.244;7.726;2023-03-20T16:53:41;8.30;;;2.85;;
58466;SDS011;44255;49.244;7.726;2023-03-20T16:56:11;5.82;;;2.63;;
58466;SDS011;44255;49.244;7.726;2023-03-20T16:58:39;4.95;;;2.38;;
58466;SDS011;44255;49.244;7.726;2023-03-20T17:01:07;3.08;;;2.30;;
58466;SDS011;44255;49.244;7.726;2023-03-20T17:08:44;10.98;;;5.32;;
58466;SDS011;44255;49.244;7.726;2023-03-20T17:11:14;8.43;;;4.03;;
58466;SDS011;44255;49.244;7.726;2023-03-20T17:13:50;6.72;;;3.15;;
58466;SDS011;44255;49.244;7.726;2023-03-20T17:16:16;5.50;;;2.28;;
58466;SDS011;44255;49.244;7.726;2023-03-20T17:18:44;3.30;;;2.00;;
58466;SDS011;44255;49.244;7.726;2023-03-20T17:21:10;5.82;;;2.20;;
58466;SDS011;44255;49.244;7.726;2023-03-20T17:23:36;5.57;;;1.90;;
58466;SDS011;44255;49.244;7.726;2023-03-20T17:26:02;4.10;;;2.25;;
58466;SDS011;44255;49.244;7.726;2023-03-20T17:28:30;5.00;;;2.13;;
58466;SDS011;44255;49.244;7.726;2023-03-20T17:30:59;4.88;;;2.45;;
58466;SDS011;44255;49.244;7.726;2023-03-20T17:33:29;4.65;;;2.33;;
58466;SDS011;44255;49.244;7.726;2023-03-20T17:35:56;5.40;;;2.80;;
58466;SDS011;44255;49.244;7.726;2023-03-20T17:38:22;7.65;;;2.90;;
58466;SDS011;44255;49.244;7.726;2023-03-20T17:40:48;4.25;;;2.70;;
58466;SDS011;44255;49.244;7.726;2023-03-20T17:43:15;4.35;;;2.53;;
58466;SDS011;44255;49.244;7.726;2023-03-20T17:45:42;28.48;;;15.40;;
58466;SDS011;44255;49.244;7.726;2023-03-20T17:50:44;5.03;;;2.88;;
58466;SDS011;44255;49.244;7.726;2023-03-20T17:53:21;6.00;;;2.60;;
58466;SDS011;44255;49.244;7.726;2023-03-20T17:55:49;5.50;;;3.40;;
58466;SDS011;44255;49.244;7.726;2023-03-20T18:00:45;6.85;;;3.30;;
58466;SDS011;44255;49.244;7.726;2023-03-20T18:03:11;4.95;;;2.40;;
58466;SDS011;44255;49.244;7.726;2023-03-20T18:05:39;3.13;;;2.47;;
58466;SDS011;44255;49.244;7.726;2023-03-20T18:08:05;3.77;;;2.13;;
58466;SDS011;44255;49.244;7.726;2023-03-20T18:10:36;9.10;;;3.35;;
58466;SDS011;44255;49.244;7.726;2023-03-20T18:13:01;8.68;;;3.10;;
58466;SDS011;44255;49.244;7.726;2023-03-20T18:15:27;9.33;;;5.37;;
58466;SDS011;44255;49.244;7.726;2023-03-20T18:17:52;8.47;;;4.77;;
58466;SDS011;44255;49.244;7.726;2023-03-20T18:20:28;14.67;;;6.10;;
58466;SDS011;44255;49.244;7.726;2023-03-20T18:22:56;5.30;;;2.58;;
58466;SDS011;44255;49.244;7.726;2023-03-20T18:25:21;4.13;;;2.63;;
58466;SDS011;44255;49.244;7.726;2023-03-20T18:27:49;11.43;;;2.80;;
58466;SDS011;44255;49.244;7.726;2023-03-20T18:30:16;7.38;;;2.80;;
58466;SDS011;44255;49.244;7.726;2023-03-20T18:32:44;13.18;;;6.10;;
58466;SDS011;44255;49.244;7.726;2023-03-20T18:35:10;11.55;;;5.72;;
58466;SDS011;44255;49.244;7.726;2023-03-20T18:37:36;11.25;;;6.57;;
58466;SDS011;44255;49.244;7.726;2023-03-20T18:40:02;13.57;;;6.07;;
58466;SDS011;44255;49.244;7.726;2023-03-20T18:42:27;4.30;;;2.28;;
58466;SDS011;44255;49.244;7.726;2023-03-20T18:44:52;4.70;;;1.70;;
58466;SDS011;44255;49.244;7.726;2023-03-20T18:47:18;6.83;;;2.97;;
58466;SDS011;44255;49.244;7.726;2023-03-20T18:49:43;11.70;;;4.77;;
58466;SDS011;44255;49.244;7.726;2023-03-20T18:52:08;10.73;;;3.40;;
58466;SDS011;44255;49.244;7.726;2023-03-20T18:54:35;4.32;;;2.22;;
58466;SDS011;44255;49.244;7.726;2023-03-20T18:57:00;5.40;;;2.60;;
58466;SDS011;44255;49.244;7.726;2023-03-20T18:59:25;9.93;;;6.60;;
58466;SDS011;44255;49.244;7.726;2023-03-20T19:01:51;9.37;;;5.00;;
58466;SDS011;44255;49.244;7.726;2023-03-20T19:04:17;5.95;;;3.13;;
58466;SDS011;44255;49.244;7.726;2023-03-20T19:06:43;6.07;;;3.72;;
58466;SDS011;44255;49.244;7.726;2023-03-20T19:09:09;9.80;;;5.28;;
58466;SDS011;44255;49.244;7.726;2023-03-20T19:11:36;5.40;;;3.35;;
58466;SDS011;44255;49.244;7.726;2023-03-20T19:14:01;7.40;;;4.18;;
58466;SDS011;44255;49.244;7.726;2023-03-20T19:16:30;13.67;;;5.73;;
58466;SDS011;44255;49.244;7.726;2023-03-20T19:18:59;12.77;;;6.78;;
58466;SDS011;44255;49.244;7.726;2023-03-20T19:21:29;11.07;;;5.75;;
58466;SDS011;44255;49.244;7.726;2023-03-20T19:23:56;7.55;;;3.97;;
58466;SDS011;44255;49.244;7.726;2023-03-20T19:26:24;8.63;;;4.13;;
58466;SDS011;44255;49.244;7.726;2023-03-20T19:28:51;7.28;;;4.05;;
58466;SDS011;44255;49.244;7.726;2023-03-20T19:31:17;9.40;;;4.07;;
58466;SDS011;44255;49.244;7.726;2023-03-20T19:33:43;7.40;;;4.35;;
58466;SDS011;44255;49.244;7.726;2023-03-20T19:38:53;14.02;;;5.50;;
58466;SDS011;44255;49.244;7.726;2023-03-20T19:41:20;13.23;;;6.70;;
58466;SDS011;44255;49.244;7.726;2023-03-20T19:43:45;16.20;;;6.53;;
58466;SDS011;44255;49.244;7.726;2023-03-20T19:46:11;27.63;;;9.95;;
58466;SDS011;44255;49.244;7.726;2023-03-20T19:48:38;92.22;;;33.95;;
58466;SDS011;44255;49.244;7.726;2023-03-20T19:51:05;219.30;;;76.55;;
58466;SDS011;44255;49.244;7.726;2023-03-20T19:53:32;65.88;;;26.98;;
58466;SDS011;44255;49.244;7.726;2023-03-20T19:55:58;29.40;;;13.53;;
58466;SDS011;44255;49.244;7.726;2023-03-20T19:58:23;17.50;;;7.67;;
58466;SDS011;44255;49.244;7.726;2023-03-20T20:00:48;33.50;;;13.47;;
58466;SDS011;44255;49.244;7.726;2023-03-20T20:03:18;18.80;;;7.65;;
58466;SDS011;44255;49.244;7.726;2023-03-20T20:05:47;13.32;;;7.20;;
58466;SDS011;44255;49.244;7.726;2023-03-20T20:08:14;9.30;;;5.45;;
58466;SDS011;44255;49.244;7.726;2023-03-20T20:10:44;10.60;;;4.97;;
58466;SDS011;44255;49.244;7.726;2023-03-20T20:13:21;10.27;;;5.13;;
58466;SDS011;44255;49.244;7.726;2023-03-20T20:15:48;9.07;;;5.45;;
58466;SDS011;44255;49.244;7.726;2023-03-20T20:18:15;13.63;;;6.20;;
58466;SDS011;44255;49.244;7.726;2023-03-20T20:20:41;10.55;;;5.55;;
58466;SDS011;44255;49.244;7.726;2023-03-20T20:23:14;10.38;;;4.32;;
58466;SDS011;44255;49.244;7.726;2023-03-20T20:25:42;6.05;;;3.20;;
58466;SDS011;44255;49.244;7.726;2023-03-20T20:28:08;7.80;;;4.50;;
58466;SDS011;44255;49.244;7.726;2023-03-20T20:30:34;18.17;;;7.43;;
58466;SDS011;44255;49.244;7.726;2023-03-20T20:33:00;13.13;;;6.93;;
58466;SDS011;44255;49.244;7.726;2023-03-20T20:35:26;11.90;;;5.53;;
58466;SDS011;44255;49.244;7.726;2023-03-20T20:37:52;10.25;;;5.97;;
58466;SDS011;44255;49.244;7.726;2023-03-20T20:40:20;12.82;;;6.43;;
58466;SDS011;44255;49.244;7.726;2023-03-20T20:42:46;16.75;;;8.18;;
58466;SDS011;44255;49.244;7.726;2023-03-20T20:45:16;17.25;;;7.90;;
58466;SDS011;44255;49.244;7.726;2023-03-20T20:47:43;13.82;;;6.40;;
58466;SDS011;44255;49.244;7.726;2023-03-20T20:50:10;10.27;;;5.65;;
58466;SDS011;44255;49.244;7.726;2023-03-20T20:52:37;14.27;;;5.68;;
58466;SDS011;44255;49.244;7.726;2023-03-20T20:55:04;13.73;;;7.10;;
58466;SDS011;44255;49.244;7.726;2023-03-20T20:57:31;13.15;;;7.00;;
58466;SDS011;44255;49.244;7.726;2023-03-20T20:59:56;13.30;;;6.80;;
58466;SDS011;44255;49.244;7.726;2023-03-20T21:02:24;10.10;;;7.53;;
58466;SDS011;44255;49.244;7.726;2023-03-20T21:04:53;20.60;;;12.30;;
58466;SDS011;44255;49.244;7.726;2023-03-20T21:09:45;16.05;;;12.90;;
58466;SDS011;44255;49.244;7.726;2023-03-20T21:12:11;11.68;;;8.40;;
58466;SDS011;44255;49.244;7.726;2023-03-20T21:14:38;13.52;;;8.10;;
58466;SDS011;44255;49.244;7.726;2023-03-20T21:17:04;17.70;;;8.95;;
58466;SDS011;44255;49.244;7.726;2023-03-20T21:22:01;15.48;;;8.80;;
58466;SDS011;44255;49.244;7.726;2023-03-20T21:26:53;15.23;;;7.47;;
58466;SDS011;44255;49.244;7.726;2023-03-20T21:29:18;15.33;;;6.83;;
58466;SDS011;44255;49.244;7.726;2023-03-20T21:31:44;10.47;;;5.93;;
58466;SDS011;44255;49.244;7.726;2023-03-20T21:34:10;13.02;;;7.28;;
58466;SDS011;44255;49.244;7.726;2023-03-20T21:36:37;13.10;;;7.45;;
58466;SDS011;44255;49.244;7.726;2023-03-20T21:39:02;11.05;;;6.68;;
58466;SDS011;44255;49.244;7.726;2023-03-20T21:41:28;10.35;;;5.10;;
58466;SDS011;44255;49.244;7.726;2023-03-20T21:43:53;9.97;;;5.60;;
58466;SDS011;44255;49.244;7.726;2023-03-20T21:46:18;12.23;;;6.63;;
58466;SDS011;44255;49.244;7.726;2023-03-20T21:48:43;21.47;;;8.33;;
58466;SDS011;44255;49.244;7.726;2023-03-20T21:51:09;13.40;;;7.07;;
58466;SDS011;44255;49.244;7.726;2023-03-20T21:53:35;13.53;;;6.23;;
58466;SDS011;44255;49.244;7.726;2023-03-20T21:56:00;13.02;;;6.63;;
58466;SDS011;44255;49.244;7.726;2023-03-20T21:58:26;11.48;;;6.65;;
